Time;durP1;ratioP1;P1;durP2;ratioP2;P2;SDS_P1;SDS_P2;PMS_P1;PMS_P2;Temp;Humidity;BMP_temperature;BMP_pressure;BME280_temperature;BME280_humidity;BME280_pressure;Samples;Min_cycle;Max_cycle;Signal;HPM_P1;HPM_P2
2022/12/22 03:28:05;;;;;;;49.40;15.48;;;;;;;;;;5043981;28;20110;-77
2022/12/22 03:30:31;;;;;;;35.40;11.45;;;;;;;;;;5044050;28;20741;-77
2022/12/22 03:32:57;;;;;;;12.00;4.45;;;;;;;;;;5042479;28;20036;-78
2022/12/22 03:35:23;;;;;;;9.23;3.20;;;;;;;;;;5043842;28;20103;-77
2022/12/22 03:37:49;;;;;;;8.90;3.20;;;;;;;;;;5043512;28;20029;-77
2022/12/22 03:40:15;;;;;;;7.00;2.60;;;;;;;;;;5042337;28;20053;-78
2022/12/22 03:48:11;;;;;;;5.25;2.42;;;;;;;;;;5041672;28;20089;-78
2022/12/22 03:50:37;;;;;;;4.65;2.50;;;;;;;;;;5046377;28;20032;-78
2022/12/22 03:53:03;;;;;;;6.57;2.28;;;;;;;;;;5048409;28;20035;-76
2022/12/22 03:55:30;;;;;;;12.20;2.72;;;;;;;;;;5048272;28;20569;-77
2022/12/22 03:57:56;;;;;;;7.63;2.78;;;;;;;;;;5043452;28;20498;-76
2022/12/22 04:00:22;;;;;;;6.22;2.83;;;;;;;;;;5047496;28;20964;-77
2022/12/22 04:02:48;;;;;;;5.15;2.50;;;;;;;;;;5047872;28;20079;-77
2022/12/22 04:05:15;;;;;;;6.35;2.38;;;;;;;;;;5045247;28;20568;-78
2022/12/22 04:07:41;;;;;;;4.90;2.88;;;;;;;;;;5047008;28;20021;-76
2022/12/22 04:12:55;;;;;;;9.20;2.95;;;;;;;;;;5046985;28;20039;-78
2022/12/22 04:15:28;;;;;;;4.65;2.58;;;;;;;;;;5054665;28;20033;-77
2022/12/22 04:17:55;;;;;;;6.53;2.75;;;;;;;;;;5052982;28;20047;-79
2022/12/22 04:20:22;;;;;;;6.93;2.40;;;;;;;;;;5045722;28;20028;-77
2022/12/22 04:22:48;;;;;;;7.30;2.60;;;;;;;;;;5048054;28;20151;-78
2022/12/22 04:25:15;;;;;;;5.07;2.90;;;;;;;;;;5052042;28;20654;-79
2022/12/22 04:27:41;;;;;;;10.88;4.82;;;;;;;;;;5059727;28;20029;-80
2022/12/22 04:30:07;;;;;;;11.05;4.30;;;;;;;;;;5057191;28;20029;-79
2022/12/22 04:32:34;;;;;;;11.18;5.10;;;;;;;;;;5057562;28;20432;-78
2022/12/22 04:35:00;;;;;;;9.45;3.70;;;;;;;;;;5055626;28;20032;-79
2022/12/22 04:37:26;;;;;;;8.60;3.92;;;;;;;;;;5053303;28;20111;-80
2022/12/22 04:39:52;;;;;;;11.40;5.53;;;;;;;;;;5056404;28;20049;-78
2022/12/22 04:42:18;;;;;;;17.02;6.03;;;;;;;;;;5053741;28;20119;-77
2022/12/22 04:44:44;;;;;;;12.55;5.38;;;;;;;;;;5050657;28;20029;-80
2022/12/22 04:47:10;;;;;;;7.72;4.90;;;;;;;;;;5052144;28;20032;-78
2022/12/22 04:49:36;;;;;;;7.50;4.47;;;;;;;;;;5047573;28;20021;-78
2022/12/22 04:52:02;;;;;;;8.70;3.50;;;;;;;;;;5046461;28;20025;-77
2022/12/22 04:54:28;;;;;;;6.30;3.55;;;;;;;;;;5042802;28;20028;-78
2022/12/22 04:56:54;;;;;;;4.65;3.20;;;;;;;;;;5044354;28;20106;-78
2022/12/22 04:59:20;;;;;;;7.00;3.88;;;;;;;;;;5042629;28;20036;-77
2022/12/22 05:01:46;;;;;;;6.72;3.47;;;;;;;;;;5046450;28;20008;-77
2022/12/22 05:04:12;;;;;;;12.48;3.72;;;;;;;;;;5042936;28;20750;-78
2022/12/22 05:06:39;;;;;;;6.90;3.60;;;;;;;;;;5044894;28;20060;-77
2022/12/22 05:09:05;;;;;;;6.90;3.80;;;;;;;;;;5038351;28;20134;-78
2022/12/22 05:11:31;;;;;;;9.40;3.75;;;;;;;;;;5049267;28;20021;-79
2022/12/22 05:13:57;;;;;;;10.45;3.70;;;;;;;;;;5046345;28;20574;-79
2022/12/22 05:16:23;;;;;;;13.20;4.15;;;;;;;;;;5044254;28;20017;-77
2022/12/22 05:18:49;;;;;;;8.60;3.70;;;;;;;;;;5045764;28;20032;-78
2022/12/22 05:21:16;;;;;;;8.30;3.90;;;;;;;;;;5045279;28;20105;-78
2022/12/22 05:23:42;;;;;;;7.32;4.05;;;;;;;;;;5043158;28;20029;-78
2022/12/22 05:26:09;;;;;;;6.95;3.25;;;;;;;;;;5045946;28;20021;-77
2022/12/22 05:28:35;;;;;;;6.82;3.60;;;;;;;;;;5044197;28;20029;-76
2022/12/22 05:31:05;;;;;;;9.50;4.18;;;;;;;;;;5042948;28;20112;-78
2022/12/22 05:33:31;;;;;;;7.63;3.50;;;;;;;;;;5043877;28;20459;-78
2022/12/22 05:35:58;;;;;;;6.90;3.80;;;;;;;;;;5041818;28;20029;-77
2022/12/22 05:38:24;;;;;;;7.57;4.05;;;;;;;;;;5042705;28;20078;-78
2022/12/22 05:40:50;;;;;;;4.95;3.10;;;;;;;;;;5043100;28;20408;-77
2022/12/22 05:43:16;;;;;;;7.68;4.13;;;;;;;;;;5044710;28;20029;-78
2022/12/22 05:45:45;;;;;;;8.43;3.92;;;;;;;;;;5049098;28;20028;-79
2022/12/22 05:48:12;;;;;;;7.90;4.22;;;;;;;;;;5045115;28;20088;-77
2022/12/22 05:50:38;;;;;;;6.38;4.03;;;;;;;;;;5047026;28;20433;-77
2022/12/22 05:53:07;;;;;;;11.90;5.20;;;;;;;;;;5048478;28;20021;-80
2022/12/22 05:55:33;;;;;;;7.93;4.97;;;;;;;;;;5043513;28;20033;-77
2022/12/22 05:58:02;;;;;;;7.30;4.25;;;;;;;;;;5041814;28;20037;-79
2022/12/22 06:00:29;;;;;;;7.47;3.60;;;;;;;;;;5043219;28;20437;-79
2022/12/22 06:02:55;;;;;;;12.73;4.00;;;;;;;;;;5040989;28;20037;-78
2022/12/22 06:05:22;;;;;;;6.30;2.83;;;;;;;;;;5043370;28;20072;-78
2022/12/22 06:07:48;;;;;;;6.10;3.40;;;;;;;;;;5045445;28;20021;-78
2022/12/22 06:10:15;;;;;;;6.53;3.30;;;;;;;;;;5046598;28;20028;-78
2022/12/22 06:12:41;;;;;;;9.80;4.05;;;;;;;;;;5046794;28;20008;-78
2022/12/22 06:15:09;;;;;;;10.48;3.55;;;;;;;;;;5047022;28;20035;-79
2022/12/22 06:17:35;;;;;;;9.57;3.83;;;;;;;;;;5046647;28;20502;-78
2022/12/22 06:20:03;;;;;;;12.77;3.58;;;;;;;;;;5047157;28;20139;-78
2022/12/22 06:22:29;;;;;;;5.43;3.60;;;;;;;;;;5047269;28;20077;-78
2022/12/22 06:24:55;;;;;;;7.95;3.72;;;;;;;;;;5046658;28;20052;-77
2022/12/22 06:27:22;;;;;;;11.40;3.20;;;;;;;;;;5045020;28;20017;-78
2022/12/22 06:29:48;;;;;;;7.28;3.25;;;;;;;;;;5045645;28;20056;-78
2022/12/22 06:32:14;;;;;;;7.63;3.40;;;;;;;;;;5038869;28;20028;-77
2022/12/22 06:34:40;;;;;;;7.05;3.40;;;;;;;;;;5042583;28;20036;-79
2022/12/22 06:37:06;;;;;;;10.93;3.70;;;;;;;;;;5042849;28;20048;-79
2022/12/22 06:39:32;;;;;;;9.30;3.70;;;;;;;;;;5043030;28;20049;-79
2022/12/22 06:44:43;;;;;;;6.68;2.95;;;;;;;;;;5040898;28;20043;-78
2022/12/22 06:47:09;;;;;;;8.50;3.00;;;;;;;;;;5043100;28;20029;-76
2022/12/22 06:49:35;;;;;;;6.18;2.80;;;;;;;;;;5046280;28;20618;-79
2022/12/22 06:52:01;;;;;;;6.38;3.10;;;;;;;;;;5043877;28;20021;-78
2022/12/22 06:54:27;;;;;;;6.47;3.33;;;;;;;;;;5039265;28;20040;-78
2022/12/22 06:56:53;;;;;;;7.30;2.83;;;;;;;;;;5035040;28;20228;-78
2022/12/22 06:59:19;;;;;;;7.25;3.75;;;;;;;;;;5035614;28;20021;-78
2022/12/22 07:01:49;;;;;;;4.57;3.00;;;;;;;;;;5042641;28;20025;-78
2022/12/22 07:04:20;;;;;;;9.50;3.40;;;;;;;;;;5037622;28;20022;-77
2022/12/22 07:06:49;;;;;;;7.90;3.42;;;;;;;;;;5041912;28;20044;-78
2022/12/22 07:09:15;;;;;;;7.20;3.15;;;;;;;;;;5041468;28;20516;-79
2022/12/22 07:11:41;;;;;;;8.02;3.05;;;;;;;;;;5038226;28;20039;-78
2022/12/22 07:14:07;;;;;;;8.93;3.90;;;;;;;;;;5040666;28;20441;-78
2022/12/22 07:16:34;;;;;;;7.80;3.20;;;;;;;;;;5038057;28;20498;-79
2022/12/22 07:19:00;;;;;;;10.02;3.58;;;;;;;;;;5039598;28;20548;-79
2022/12/22 07:21:26;;;;;;;4.82;3.47;;;;;;;;;;5045130;28;20084;-77
2022/12/22 07:23:52;;;;;;;7.28;3.92;;;;;;;;;;5048504;28;20025;-78
2022/12/22 07:26:18;;;;;;;11.55;5.00;;;;;;;;;;5050724;28;20079;-78
2022/12/22 07:28:44;;;;;;;11.00;5.95;;;;;;;;;;5050476;28;20059;-79
2022/12/22 07:31:11;;;;;;;7.63;4.70;;;;;;;;;;5046680;28;20066;-79
2022/12/22 07:33:37;;;;;;;9.18;4.35;;;;;;;;;;5050585;28;20111;-79
2022/12/22 07:36:04;;;;;;;8.95;4.20;;;;;;;;;;5045770;28;20033;-79
2022/12/22 07:38:31;;;;;;;7.82;4.25;;;;;;;;;;5049862;28;20036;-79
2022/12/22 07:40:58;;;;;;;13.00;4.63;;;;;;;;;;5049529;28;20758;-77
2022/12/22 07:43:24;;;;;;;15.43;4.15;;;;;;;;;;5049674;28;20027;-78
2022/12/22 07:45:50;;;;;;;6.35;4.35;;;;;;;;;;5051195;28;20070;-79
2022/12/22 07:51:02;;;;;;;8.90;3.92;;;;;;;;;;5048027;28;20036;-78
2022/12/22 07:53:28;;;;;;;8.98;3.65;;;;;;;;;;5045432;28;20516;-78
2022/12/22 07:55:55;;;;;;;9.13;3.78;;;;;;;;;;5046007;28;20514;-79
2022/12/22 07:58:21;;;;;;;7.43;4.03;;;;;;;;;;5044244;28;20056;-78
2022/12/22 08:00:48;;;;;;;7.03;3.65;;;;;;;;;;5050698;28;20035;-78
2022/12/22 08:03:14;;;;;;;11.20;4.32;;;;;;;;;;5051059;28;20025;-78
2022/12/22 08:05:40;;;;;;;6.75;4.40;;;;;;;;;;5049409;28;20028;-78
2022/12/22 08:08:06;;;;;;;13.15;4.10;;;;;;;;;;5051286;28;20594;-78
2022/12/22 08:10:32;;;;;;;7.97;3.90;;;;;;;;;;5045156;28;20361;-79
2022/12/22 08:12:58;;;;;;;10.48;4.40;;;;;;;;;;5051692;28;20063;-79
2022/12/22 08:15:24;;;;;;;9.32;4.18;;;;;;;;;;5047432;28;20036;-79
2022/12/22 08:17:50;;;;;;;12.05;5.30;;;;;;;;;;5047484;28;20490;-78
2022/12/22 08:20:17;;;;;;;9.65;5.35;;;;;;;;;;5052434;28;20027;-78
2022/12/22 08:22:43;;;;;;;8.10;5.22;;;;;;;;;;5048730;28;20495;-78
2022/12/22 08:25:09;;;;;;;10.25;5.88;;;;;;;;;;5057315;28;20074;-79
2022/12/22 08:27:39;;;;;;;8.02;5.35;;;;;;;;;;5049361;28;20028;-79
2022/12/22 08:30:09;;;;;;;6.90;4.60;;;;;;;;;;5051260;28;20100;-78
2022/12/22 08:32:39;;;;;;;9.50;4.95;;;;;;;;;;5046313;28;20028;-79
2022/12/22 08:35:06;;;;;;;7.15;4.43;;;;;;;;;;5047798;28;20043;-78
2022/12/22 08:37:34;;;;;;;7.93;4.55;;;;;;;;;;5048518;28;20029;-78
2022/12/22 08:40:02;;;;;;;5.97;3.95;;;;;;;;;;5047844;28;20036;-77
2022/12/22 08:42:28;;;;;;;8.88;4.53;;;;;;;;;;5055593;28;20391;-80
2022/12/22 08:44:55;;;;;;;7.60;4.50;;;;;;;;;;5053047;28;20032;-79
2022/12/22 08:47:21;;;;;;;6.60;4.78;;;;;;;;;;5054576;28;20416;-79
2022/12/22 08:49:48;;;;;;;6.38;4.95;;;;;;;;;;5058894;28;20062;-79
2022/12/22 08:52:14;;;;;;;5.18;3.67;;;;;;;;;;5047114;28;21080;-78
2022/12/22 08:54:40;;;;;;;6.05;3.92;;;;;;;;;;5042947;28;20029;-79
2022/12/22 08:57:06;;;;;;;5.38;4.00;;;;;;;;;;5042429;28;20475;-79
2022/12/22 08:59:32;;;;;;;4.20;3.40;;;;;;;;;;5042714;28;20032;-79
2022/12/22 09:02:03;;;;;;;8.43;3.58;;;;;;;;;;5041844;28;20564;-79
2022/12/22 09:04:30;;;;;;;5.47;3.17;;;;;;;;;;5042213;28;20063;-78
2022/12/22 09:06:56;;;;;;;6.28;3.40;;;;;;;;;;5041751;28;20419;-78
2022/12/22 09:09:22;;;;;;;4.63;3.53;;;;;;;;;;5046335;28;20127;-78
2022/12/22 09:11:48;;;;;;;10.10;4.15;;;;;;;;;;5043159;28;20059;-79
2022/12/22 09:14:14;;;;;;;7.97;3.80;;;;;;;;;;5045976;28;20032;-79
2022/12/22 09:16:41;;;;;;;5.70;3.78;;;;;;;;;;5047497;28;20030;-77
2022/12/22 09:19:13;;;;;;;4.97;3.35;;;;;;;;;;5052840;28;20159;-77
2022/12/22 09:21:39;;;;;;;10.10;3.75;;;;;;;;;;5055793;28;20103;-79
2022/12/22 09:24:08;;;;;;;6.90;3.65;;;;;;;;;;5057539;28;20017;-79
2022/12/22 09:26:35;;;;;;;11.77;3.70;;;;;;;;;;5055844;28;20017;-78
2022/12/22 09:29:01;;;;;;;5.35;4.03;;;;;;;;;;5052862;28;20059;-77
2022/12/22 09:31:27;;;;;;;5.63;4.07;;;;;;;;;;5054678;28;20108;-79
2022/12/22 09:33:54;;;;;;;5.32;3.10;;;;;;;;;;5053710;28;20035;-77
2022/12/22 09:36:21;;;;;;;6.97;3.42;;;;;;;;;;5066227;28;20051;-78
2022/12/22 09:38:47;;;;;;;9.85;3.40;;;;;;;;;;5060879;28;20057;-79
2022/12/22 09:41:26;;;;;;;7.40;3.67;;;;;;;;;;5065027;28;20040;-79
2022/12/22 09:43:52;;;;;;;6.60;3.90;;;;;;;;;;5060142;28;20017;-78
2022/12/22 09:46:23;;;;;;;6.47;3.47;;;;;;;;;;5064967;28;20047;-79
2022/12/22 09:48:49;;;;;;;4.00;2.70;;;;;;;;;;5058075;28;20005;-79
2022/12/22 09:51:16;;;;;;;7.70;3.30;;;;;;;;;;5054922;28;20048;-79
2022/12/22 09:53:43;;;;;;;8.90;3.47;;;;;;;;;;5054780;28;20018;-79
2022/12/22 09:56:12;;;;;;;7.28;3.08;;;;;;;;;;5055262;28;20095;-78
2022/12/22 09:58:38;;;;;;;6.70;3.25;;;;;;;;;;5054065;28;20021;-78
2022/12/22 10:01:05;;;;;;;8.10;3.92;;;;;;;;;;5054647;28;20022;-78
2022/12/22 10:03:31;;;;;;;5.15;3.40;;;;;;;;;;5057876;28;20060;-79
2022/12/22 10:06:06;;;;;;;6.97;4.38;;;;;;;;;;5056125;28;20024;-78
2022/12/22 10:08:33;;;;;;;11.65;4.07;;;;;;;;;;5056346;28;20033;-78
2022/12/22 10:11:00;;;;;;;7.72;4.03;;;;;;;;;;5058689;28;20033;-76
2022/12/22 10:13:29;;;;;;;8.98;3.65;;;;;;;;;;5056534;28;20487;-78
2022/12/22 10:15:55;;;;;;;9.38;4.53;;;;;;;;;;5060393;28;20114;-78
2022/12/22 10:18:24;;;;;;;7.40;5.40;;;;;;;;;;5057286;28;20112;-78
2022/12/22 10:21:07;;;;;;;12.52;5.30;;;;;;;;;;5058390;28;20021;-79
2022/12/22 10:23:36;;;;;;;10.10;4.40;;;;;;;;;;5060070;28;20029;-79
2022/12/22 10:26:05;;;;;;;10.95;5.38;;;;;;;;;;5061893;28;20017;-78
2022/12/22 10:28:43;;;;;;;5.95;3.67;;;;;;;;;;5060542;28;20052;-81
2022/12/22 10:31:09;;;;;;;7.90;4.68;;;;;;;;;;5062646;28;20025;-79
2022/12/22 10:33:35;;;;;;;6.68;4.35;;;;;;;;;;5059937;28;20109;-81
2022/12/22 10:36:01;;;;;;;6.00;4.30;;;;;;;;;;5061438;28;20049;-79
2022/12/22 10:38:29;;;;;;;8.38;4.60;;;;;;;;;;5060790;28;20025;-79
2022/12/22 10:40:56;;;;;;;7.88;4.50;;;;;;;;;;5065136;28;20048;-80
2022/12/22 10:43:31;;;;;;;5.60;3.85;;;;;;;;;;5057167;28;20108;-79
2022/12/22 10:45:57;;;;;;;9.23;4.43;;;;;;;;;;5054177;28;20036;-79
2022/12/22 10:48:34;;;;;;;8.57;4.07;;;;;;;;;;5061107;28;20275;-78
2022/12/22 10:51:07;;;;;;;7.13;4.13;;;;;;;;;;5057992;28;20567;-78
2022/12/22 10:53:42;;;;;;;8.18;4.70;;;;;;;;;;5051994;28;20033;-78
2022/12/22 10:56:18;;;;;;;9.73;4.80;;;;;;;;;;5057468;28;20112;-78
2022/12/22 10:58:43;;;;;;;;;;;;;;;;;;5058423;28;20796;-77
2022/12/22 11:01:09;;;;;;;;;;;;;;;;;;5068232;28;19905;-79
2022/12/22 11:03:36;;;;;;;6.47;3.90;;;;;;;;;;5064113;28;19909;-79
2022/12/22 11:06:02;;;;;;;6.70;4.15;;;;;;;;;;5065702;28;20025;-76
2022/12/22 11:08:29;;;;;;;8.38;5.13;;;;;;;;;;5067401;28;20028;-80
2022/12/22 11:10:55;;;;;;;8.70;4.15;;;;;;;;;;5068512;28;20025;-79
2022/12/22 11:13:40;;;;;;;7.03;3.90;;;;;;;;;;5060780;28;20029;-78
2022/12/22 11:16:18;;;;;;;6.47;2.92;;;;;;;;;;5068158;28;20037;-79
2022/12/22 11:18:56;;;;;;;4.38;3.00;;;;;;;;;;5061109;28;20390;-78
2022/12/22 11:21:40;;;;;;;8.52;3.08;;;;;;;;;;5067237;28;20029;-78
2022/12/22 11:24:15;;;;;;;9.55;2.90;;;;;;;;;;5070673;28;20025;-78
2022/12/22 11:27:00;;;;;;;6.72;2.47;;;;;;;;;;5061632;28;20021;-79
2022/12/22 11:29:34;;;;;;;4.50;2.60;;;;;;;;;;5067767;28;20039;-80
2022/12/22 11:32:00;;;;;;;23.10;5.75;;;;;;;;;;5068880;28;20026;-80
2022/12/22 11:34:26;;;;;;;35.88;5.53;;;;;;;;;;5060944;28;20044;-79
2022/12/22 11:37:02;;;;;;;7.20;3.72;;;;;;;;;;5062966;28;20032;-81
2022/12/22 11:39:51;;;;;;;9.63;3.35;;;;;;;;;;5060444;28;20046;-78
2022/12/22 11:42:25;;;;;;;5.97;3.80;;;;;;;;;;5063387;28;20025;-78
2022/12/22 11:45:00;;;;;;;7.35;4.10;;;;;;;;;;5061676;28;20047;-79
2022/12/22 11:47:34;;;;;;;4.53;3.63;;;;;;;;;;5069697;28;20030;-79
2022/12/22 11:50:19;;;;;;;9.55;6.00;;;;;;;;;;5068894;28;20052;-80
2022/12/22 11:53:04;;;;;;;4.88;4.22;;;;;;;;;;5068677;28;20025;-78
2022/12/22 11:55:30;;;;;;;4.55;3.85;;;;;;;;;;5067406;28;20029;-79
2022/12/22 11:57:56;;;;;;;6.78;3.90;;;;;;;;;;5076116;22;20079;-79
2022/12/22 12:00:22;;;;;;;7.22;4.28;;;;;;;;;;5049697;28;20036;-79
2022/12/22 12:03:12;;;;;;;6.18;4.68;;;;;;;;;;5052064;28;20029;-78
2022/12/22 12:05:56;;;;;;;72.65;14.05;;;;;;;;;;5026135;28;20052;-78
2022/12/22 12:08:35;;;;;;;55.38;13.18;;;;;;;;;;5054470;28;20044;-78
2022/12/22 12:11:17;;;;;;;7.57;5.47;;;;;;;;;;5065615;28;20048;-77
2022/12/22 12:13:49;;;;;;;6.80;5.20;;;;;;;;;;5045398;28;20086;-79
2022/12/22 12:16:35;;;;;;;7.57;5.82;;;;;;;;;;5048273;28;20565;-76
2022/12/22 12:19:07;;;;;;;13.05;6.88;;;;;;;;;;5054371;28;20054;-76
2022/12/22 12:21:54;;;;;;;20.95;6.63;;;;;;;;;;5049109;28;20017;-79
2022/12/22 12:24:29;;;;;;;24.20;6.32;;;;;;;;;;5054193;28;20017;-77
2022/12/22 12:26:58;;;;;;;14.63;7.40;;;;;;;;;;5060268;22;20057;-78
2022/12/22 12:29:30;;;;;;;55.22;12.57;;;;;;;;;;5045414;28;20025;-78
2022/12/22 12:32:00;;;;;;;18.90;6.80;;;;;;;;;;5047158;28;20395;-78
2022/12/22 12:34:27;;;;;;;27.02;7.10;;;;;;;;;;5052139;28;20021;-79
2022/12/22 12:37:06;;;;;;;23.25;6.93;;;;;;;;;;5054818;28;20096;-78
2022/12/22 12:39:41;;;;;;;9.35;5.50;;;;;;;;;;5045632;28;20028;-80
2022/12/22 12:42:07;;;;;;;9.02;5.95;;;;;;;;;;5046073;28;20025;-80
2022/12/22 12:44:35;;;;;;;13.95;7.13;;;;;;;;;;5046950;28;20116;-80
2022/12/22 12:47:24;;;;;;;22.67;7.97;;;;;;;;;;5045859;28;20075;-78
2022/12/22 12:49:52;;;;;;;8.70;6.28;;;;;;;;;;5035854;28;20029;-79
2022/12/22 12:52:18;;;;;;;9.43;5.95;;;;;;;;;;5046642;28;20037;-79
2022/12/22 12:54:46;;;;;;;12.35;6.30;;;;;;;;;;5043423;28;20032;-80
2022/12/22 12:57:21;;;;;;;8.88;5.45;;;;;;;;;;5043980;28;20025;-79
2022/12/22 12:59:47;;;;;;;8.55;6.10;;;;;;;;;;5044764;28;20103;-79
2022/12/22 13:02:32;;;;;;;9.40;6.05;;;;;;;;;;5046199;28;20064;-79
2022/12/22 13:05:27;;;;;;;8.85;5.90;;;;;;;;;;5049592;28;20055;-79
2022/12/22 13:08:15;;;;;;;10.68;7.07;;;;;;;;;;5054575;28;20041;-79
2022/12/22 13:10:54;;;;;;;10.40;6.30;;;;;;;;;;5056125;28;20029;-80
2022/12/22 13:13:25;;;;;;;9.60;6.35;;;;;;;;;;5052322;28;20026;-79
2022/12/22 13:16:01;;;;;;;10.82;6.82;;;;;;;;;;5053698;28;20029;-80
2022/12/22 13:18:27;;;;;;;11.23;7.13;;;;;;;;;;5044769;28;20024;-80
2022/12/22 13:21:07;;;;;;;13.45;8.45;;;;;;;;;;5048854;28;20135;-79
2022/12/22 13:23:37;;;;;;;18.23;11.55;;;;;;;;;;5041692;28;20498;-79
2022/12/22 13:26:12;;;;;;;30.25;13.63;;;;;;;;;;5045372;28;20175;-80
2022/12/22 13:28:40;;;;;;;15.68;10.85;;;;;;;;;;5054653;28;20053;-80
2022/12/22 13:31:13;;;;;;;21.05;11.23;;;;;;;;;;5072550;28;20491;-80
2022/12/22 13:33:43;;;;;;;22.27;11.10;;;;;;;;;;5050599;28;20033;-80
2022/12/22 13:36:16;;;;;;;15.25;9.82;;;;;;;;;;5050337;28;20076;-80
2022/12/22 13:38:42;;;;;;;14.70;9.20;;;;;;;;;;5055038;28;20108;-80
2022/12/22 13:41:14;;;;;;;15.40;8.27;;;;;;;;;;5046845;28;20025;-79
2022/12/22 13:43:41;;;;;;;15.10;9.35;;;;;;;;;;5045050;28;20025;-80
2022/12/22 13:46:08;;;;;;;12.60;8.32;;;;;;;;;;5043231;28;20513;-79
2022/12/22 13:48:39;;;;;;;14.32;9.27;;;;;;;;;;5042916;28;20037;-80
2022/12/22 13:51:08;;;;;;;10.50;7.43;;;;;;;;;;5045128;28;20025;-80
2022/12/22 13:53:36;;;;;;;29.65;11.13;;;;;;;;;;5044564;28;20033;-79
2022/12/22 13:56:05;;;;;;;12.70;7.85;;;;;;;;;;5050661;28;20034;-79
2022/12/22 13:58:35;;;;;;;13.38;7.85;;;;;;;;;;5048870;28;20057;-80
2022/12/22 14:01:03;;;;;;;18.80;10.38;;;;;;;;;;5048572;28;20424;-79
2022/12/22 14:03:29;;;;;;;18.83;12.60;;;;;;;;;;5049521;28;20033;-80
2022/12/22 14:05:55;;;;;;;18.60;12.23;;;;;;;;;;5043823;28;20118;-80
2022/12/22 14:08:23;;;;;;;11.70;8.82;;;;;;;;;;5045505;28;20018;-80
2022/12/22 14:10:49;;;;;;;14.90;6.97;;;;;;;;;;5045947;28;20426;-79
2022/12/22 14:13:17;;;;;;;11.32;7.45;;;;;;;;;;5043503;28;20033;-80
2022/12/22 14:15:44;;;;;;;15.88;9.18;;;;;;;;;;5044420;28;20037;-80
2022/12/22 14:18:19;;;;;;;15.75;9.82;;;;;;;;;;5043547;28;20024;-81
2022/12/22 14:20:46;;;;;;;10.73;7.40;;;;;;;;;;5045639;28;20094;-80
2022/12/22 14:23:16;;;;;;;12.82;5.13;;;;;;;;;;5046073;28;20044;-80
2022/12/22 14:25:43;;;;;;;11.15;5.53;;;;;;;;;;5053212;28;20039;-81
2022/12/22 14:28:32;;;;;;;9.23;6.50;;;;;;;;;;5050925;28;20057;-78
2022/12/22 14:31:00;;;;;;;9.40;5.57;;;;;;;;;;5041143;28;20032;-80
2022/12/22 14:33:28;;;;;;;6.90;4.85;;;;;;;;;;5047699;28;20063;-81
2022/12/22 14:36:04;;;;;;;8.23;5.85;;;;;;;;;;5047191;28;20030;-80
2022/12/22 14:38:37;;;;;;;9.85;5.10;;;;;;;;;;5050003;28;20017;-80
2022/12/22 14:41:09;;;;;;;7.05;4.82;;;;;;;;;;5054724;28;20033;-80
2022/12/22 14:43:35;;;;;;;7.05;5.30;;;;;;;;;;5049837;28;20527;-79
2022/12/22 14:46:08;;;;;;;8.30;4.60;;;;;;;;;;5052084;28;20025;-81
2022/12/22 14:48:45;;;;;;;8.00;6.35;;;;;;;;;;5050703;28;20985;-79
2022/12/22 14:51:15;;;;;;;12.55;7.35;;;;;;;;;;5053465;28;20036;-80
2022/12/22 14:53:50;;;;;;;7.50;6.05;;;;;;;;;;5059176;28;20047;-80
2022/12/22 14:56:17;;;;;;;6.47;4.97;;;;;;;;;;5058141;28;20025;-81
2022/12/22 14:58:44;;;;;;;10.65;5.05;;;;;;;;;;5052403;28;20352;-80
2022/12/22 15:01:15;;;;;;;8.20;4.50;;;;;;;;;;5046151;28;20394;-81
2022/12/22 15:03:42;;;;;;;7.93;5.13;;;;;;;;;;5042985;28;20041;-79
2022/12/22 15:06:31;;;;;;;7.88;4.63;;;;;;;;;;5044879;28;20029;-80
2022/12/22 15:09:07;;;;;;;10.07;5.22;;;;;;;;;;5044555;28;20143;-80
2022/12/22 15:11:35;;;;;;;7.88;4.38;;;;;;;;;;5043587;28;20025;-79
2022/12/22 15:14:01;;;;;;;7.40;4.80;;;;;;;;;;5048015;28;20290;-80
2022/12/22 15:16:27;;;;;;;11.02;6.30;;;;;;;;;;5045232;28;20375;-79
2022/12/22 15:18:53;;;;;;;9.13;6.03;;;;;;;;;;5043022;28;20021;-80
2022/12/22 15:21:20;;;;;;;10.02;5.72;;;;;;;;;;5042251;28;20025;-79
2022/12/22 15:23:46;;;;;;;5.80;4.63;;;;;;;;;;5044533;28;20450;-80
2022/12/22 15:26:12;;;;;;;9.05;5.32;;;;;;;;;;5043210;28;20538;-79
2022/12/22 15:28:38;;;;;;;7.97;4.80;;;;;;;;;;5046986;28;20029;-79
2022/12/22 15:31:06;;;;;;;7.97;4.40;;;;;;;;;;5041905;28;20541;-78
2022/12/22 15:33:32;;;;;;;7.43;4.82;;;;;;;;;;5044726;28;20116;-79
2022/12/22 15:35:59;;;;;;;6.95;4.93;;;;;;;;;;5045816;28;20032;-80
2022/12/22 15:38:26;;;;;;;8.55;6.13;;;;;;;;;;5045511;28;20036;-79
2022/12/22 15:40:52;;;;;;;8.48;5.18;;;;;;;;;;5044830;28;20108;-80
2022/12/22 15:43:18;;;;;;;11.23;5.30;;;;;;;;;;5049161;28;20028;-79
2022/12/22 15:45:44;;;;;;;9.30;5.47;;;;;;;;;;5050783;28;20036;-79
2022/12/22 15:48:13;;;;;;;15.15;5.88;;;;;;;;;;5049948;28;20034;-79
2022/12/22 15:50:40;;;;;;;20.02;6.30;;;;;;;;;;5045807;28;20044;-78
2022/12/22 15:53:10;;;;;;;9.68;5.78;;;;;;;;;;5052061;28;20631;-81
2022/12/22 15:55:41;;;;;;;9.27;5.35;;;;;;;;;;5063147;28;20096;-79
2022/12/22 15:58:11;;;;;;;8.40;5.53;;;;;;;;;;5064255;28;20067;-80
2022/12/22 16:00:37;;;;;;;13.63;6.45;;;;;;;;;;5061375;28;20214;-79
2022/12/22 16:03:04;;;;;;;9.90;5.55;;;;;;;;;;5060642;28;20017;-80
2022/12/22 16:05:30;;;;;;;14.60;6.93;;;;;;;;;;5059307;28;20029;-81
2022/12/22 16:07:56;;;;;;;18.63;11.10;;;;;;;;;;5062851;28;20040;-80
2022/12/22 16:10:25;;;;;;;10.68;5.85;;;;;;;;;;5062950;28;20036;-80
2022/12/22 16:12:59;;;;;;;28.63;19.25;;;;;;;;;;5067759;28;20119;-79
2022/12/22 16:15:30;;;;;;;328.17;183.02;;;;;;;;;;5052576;28;20037;-80
2022/12/22 16:17:56;;;;;;;52.30;32.72;;;;;;;;;;5065360;28;20037;-80
2022/12/22 16:20:23;;;;;;;189.27;101.65;;;;;;;;;;5072835;28;20040;-80
2022/12/22 16:22:51;;;;;;;77.63;44.03;;;;;;;;;;5054870;28;20057;-79
2022/12/22 16:25:19;;;;;;;38.72;22.60;;;;;;;;;;5073592;28;20105;-80
2022/12/22 16:27:48;;;;;;;32.95;23.95;;;;;;;;;;5052048;28;20112;-80
2022/12/22 16:30:19;;;;;;;30.75;20.65;;;;;;;;;;5046895;28;20033;-80
2022/12/22 16:32:45;;;;;;;17.05;10.90;;;;;;;;;;5047437;28;20467;-80
2022/12/22 16:35:11;;;;;;;16.88;10.68;;;;;;;;;;5047389;28;20068;-80
2022/12/22 16:37:38;;;;;;;63.10;37.45;;;;;;;;;;5045628;28;20037;-80
2022/12/22 16:40:04;;;;;;;46.50;27.50;;;;;;;;;;5052910;28;20025;-80
2022/12/22 16:42:30;;;;;;;34.78;22.48;;;;;;;;;;5051217;28;20034;-80
2022/12/22 16:44:57;;;;;;;25.13;21.17;;;;;;;;;;5044080;28;20021;-80
2022/12/22 16:47:26;;;;;;;29.13;22.02;;;;;;;;;;5053598;28;20029;-80
2022/12/22 16:49:56;;;;;;;27.15;18.80;;;;;;;;;;5051489;28;20475;-80
2022/12/22 16:52:24;;;;;;;31.52;22.40;;;;;;;;;;5070325;28;20376;-81
2022/12/22 16:54:50;;;;;;;86.53;59.05;;;;;;;;;;5053611;28;20116;-81
2022/12/22 16:57:17;;;;;;;33.83;24.33;;;;;;;;;;5050818;28;20037;-80
2022/12/22 16:59:43;;;;;;;65.68;46.20;;;;;;;;;;5052530;28;20033;-80
2022/12/22 17:02:35;;;;;;;62.78;42.67;;;;;;;;;;5051919;28;20125;-80
2022/12/22 17:05:02;;;;;;;36.17;27.20;;;;;;;;;;5057350;28;20027;-81
2022/12/22 17:07:31;;;;;;;38.20;29.40;;;;;;;;;;5052576;28;20064;-80
2022/12/22 17:10:00;;;;;;;34.58;26.67;;;;;;;;;;5053645;28;20036;-80
2022/12/22 17:12:27;;;;;;;29.00;20.13;;;;;;;;;;5058467;28;20032;-80
2022/12/22 17:14:54;;;;;;;26.27;16.42;;;;;;;;;;5058831;28;20059;-81
2022/12/22 17:17:23;;;;;;;20.35;14.20;;;;;;;;;;5058616;28;20215;-79
2022/12/22 17:19:50;;;;;;;18.15;11.55;;;;;;;;;;5056919;28;20050;-80
2022/12/22 17:22:21;;;;;;;18.48;11.10;;;;;;;;;;5057817;28;20025;-81
2022/12/22 17:24:48;;;;;;;20.52;12.70;;;;;;;;;;5054302;28;20070;-79
2022/12/22 17:27:21;;;;;;;27.67;15.27;;;;;;;;;;5067977;28;20132;-80
2022/12/22 17:29:49;;;;;;;25.15;14.90;;;;;;;;;;5058973;28;20020;-79
2022/12/22 17:32:15;;;;;;;37.08;18.52;;;;;;;;;;5043485;28;20036;-80
2022/12/22 17:34:41;;;;;;;43.55;17.60;;;;;;;;;;5047231;28;20021;-79
2022/12/22 17:37:14;;;;;;;91.35;18.45;;;;;;;;;;5080596;28;20035;-78
2022/12/22 17:39:41;;;;;;;55.17;19.30;;;;;;;;;;5055782;28;20024;-79
2022/12/22 17:42:21;;;;;;;72.78;25.02;;;;;;;;;;5056210;28;20475;-78
2022/12/22 17:44:48;;;;;;;50.10;20.38;;;;;;;;;;5072720;28;20048;-80
2022/12/22 17:47:15;;;;;;;70.57;20.63;;;;;;;;;;5051528;28;20025;-79
2022/12/22 17:49:42;;;;;;;50.67;17.85;;;;;;;;;;5069702;28;20022;-79
2022/12/22 17:52:18;;;;;;;106.38;25.13;;;;;;;;;;5045820;28;20536;-79
2022/12/22 17:54:45;;;;;;;59.15;18.73;;;;;;;;;;5061143;28;20060;-79
2022/12/22 17:57:24;;;;;;;54.83;17.60;;;;;;;;;;5051408;28;20352;-80
2022/12/22 17:59:50;;;;;;;55.10;16.95;;;;;;;;;;5060258;28;20586;-80
2022/12/22 18:02:20;;;;;;;58.70;19.88;;;;;;;;;;5055373;28;20495;-79
2022/12/22 18:04:47;;;;;;;83.47;23.88;;;;;;;;;;5078076;28;20075;-79
2022/12/22 18:07:15;;;;;;;150.95;25.23;;;;;;;;;;5054811;28;20491;-79
2022/12/22 18:09:42;;;;;;;102.13;23.33;;;;;;;;;;5058805;28;20017;-80
2022/12/22 18:12:19;;;;;;;59.55;17.75;;;;;;;;;;5052968;28;20404;-79
2022/12/22 18:14:45;;;;;;;110.10;20.15;;;;;;;;;;5066849;28;20024;-79
2022/12/22 18:17:25;;;;;;;46.17;17.95;;;;;;;;;;5056151;28;20029;-80
2022/12/22 18:19:51;;;;;;;69.00;23.15;;;;;;;;;;5056695;28;20037;-79
2022/12/22 18:22:19;;;;;;;95.68;30.83;;;;;;;;;;5052342;28;20112;-80
2022/12/22 18:24:45;;;;;;;86.15;28.05;;;;;;;;;;5055007;28;20100;-79
2022/12/22 18:27:12;;;;;;;128.35;26.30;;;;;;;;;;5060031;28;20084;-80